createdAt,value
2022-10-12T00:02:10.736Z,100511.84
2022-10-12T00:04:37.146Z,100517.94
2022-10-12T00:07:03.551Z,100510.03
2022-10-12T00:09:29.915Z,100507.19
2022-10-12T00:11:56.290Z,100496.25
2022-10-12T00:14:22.662Z,100499.13
2022-10-12T00:16:49.078Z,100511.22
2022-10-12T00:19:15.575Z,100498.78
2022-10-12T00:21:42.169Z,100502.78
2022-10-12T00:24:09.160Z,100512.66
2022-10-12T00:26:35.638Z,100506.97
2022-10-12T00:29:04.063Z,100506.53
2022-10-12T00:31:31.206Z,100501.66
2022-10-12T00:34:01.270Z,100498.75
2022-10-12T00:36:32.266Z,100503.00
2022-10-12T00:38:59.868Z,100503.44
2022-10-12T00:41:29.264Z,100515.00
2022-10-12T00:43:58.463Z,100513.75
2022-10-12T00:46:39.240Z,100517.03
2022-10-12T00:49:17.545Z,100520.25
2022-10-12T00:51:48.661Z,100506.75
2022-10-12T00:54:23.606Z,100512.00
2022-10-12T00:56:53.280Z,100511.88
2022-10-12T00:59:24.159Z,100512.84
2022-10-12T01:01:50.928Z,100512.59
2022-10-12T01:04:17.601Z,100516.00
2022-10-12T01:06:44.151Z,100517.31
2022-10-12T01:09:10.520Z,100514.84
2022-10-12T01:11:36.897Z,100511.88
2022-10-12T01:14:03.562Z,100508.34
2022-10-12T01:16:46.563Z,100511.16
2022-10-12T01:19:46.506Z,100519.00
2022-10-12T01:22:19.220Z,100501.78
2022-10-12T01:25:16.226Z,100499.16
2022-10-12T01:27:49.961Z,100508.59
2022-10-12T01:30:25.702Z,100511.78
2022-10-12T01:33:05.730Z,100502.47
2022-10-12T01:35:44.011Z,100505.75
2022-10-12T01:38:34.995Z,100509.25
2022-10-12T01:41:10.625Z,100502.66
2022-10-12T01:43:40.064Z,100493.53
2022-10-12T01:46:12.530Z,100497.50
2022-10-12T01:48:40.401Z,100497.34
2022-10-12T01:51:09.086Z,100497.78
2022-10-12T01:54:01.333Z,100497.38
2022-10-12T01:56:34.937Z,100488.34
2022-10-12T01:59:14.380Z,100483.13
2022-10-12T02:01:50.073Z,100482.19
2022-10-12T02:04:51.857Z,100487.44
2022-10-12T02:07:38.036Z,100479.56
2022-10-12T02:10:10.641Z,100488.06
2022-10-12T02:12:40.261Z,100489.16
2022-10-12T02:15:10.082Z,100481.41
2022-10-12T02:17:38.480Z,100485.88
2022-10-12T02:20:06.148Z,100490.63
2022-10-12T02:22:36.683Z,100493.63
2022-10-12T02:25:08.918Z,100487.41
2022-10-12T02:27:37.125Z,100474.09
2022-10-12T02:30:04.533Z,100473.38
2022-10-12T02:32:50.613Z,100468.13
2022-10-12T02:35:31.305Z,100473.38
2022-10-12T02:38:11.734Z,100465.78
2022-10-12T02:40:54.666Z,100465.44
2022-10-12T02:43:38.845Z,100473.53
2022-10-12T02:46:08.894Z,100469.22
2022-10-12T02:48:38.802Z,100460.59
2022-10-12T02:51:07.107Z,100457.28
2022-10-12T02:53:33.843Z,100460.44
2022-10-12T02:56:06.190Z,100458.06
2022-10-12T02:58:32.709Z,100457.28
2022-10-12T03:00:59.171Z,100449.69
2022-10-12T03:03:25.610Z,100447.88
2022-10-12T03:05:52.063Z,100447.34
2022-10-12T03:08:18.450Z,100444.16
2022-10-12T03:10:44.873Z,100446.88
2022-10-12T03:13:11.367Z,100444.72
2022-10-12T03:15:37.962Z,100448.69
2022-10-12T03:18:04.518Z,100445.38
2022-10-12T03:20:30.877Z,100446.97
2022-10-12T03:22:57.248Z,100455.16
2022-10-12T03:25:23.865Z,100459.91
2022-10-12T03:27:50.286Z,100455.41
2022-10-12T03:30:16.774Z,100446.59
2022-10-12T03:32:43.365Z,100450.97
2022-10-12T03:35:10.012Z,100449.03
2022-10-12T03:37:36.778Z,100448.41
2022-10-12T03:40:03.518Z,100447.09
2022-10-12T03:42:29.899Z,100451.16
2022-10-12T03:44:56.300Z,100454.97
2022-10-12T03:47:22.684Z,100449.72
2022-10-12T03:49:49.038Z,100441.84
2022-10-12T03:52:15.576Z,100442.03
2022-10-12T03:54:41.942Z,100436.47
2022-10-12T03:57:08.316Z,100434.72
2022-10-12T03:59:34.678Z,100444.25
2022-10-12T04:02:01.065Z,100448.34
2022-10-12T04:04:27.497Z,100442.53
2022-10-12T04:06:53.873Z,100448.09
2022-10-12T04:09:20.260Z,100440.78
2022-10-12T04:11:46.626Z,100440.13
2022-10-12T04:14:12.985Z,100449.88
2022-10-12T04:16:39.439Z,100448.91
2022-10-12T04:19:05.889Z,100431.72
2022-10-12T04:21:32.360Z,100447.44
2022-10-12T04:23:58.740Z,100455.25
2022-10-12T04:26:25.134Z,100439.53
2022-10-12T04:28:51.575Z,100450.66
2022-10-12T04:31:18.321Z,100452.28
2022-10-12T04:33:44.752Z,100448.81
2022-10-12T04:36:11.133Z,100451.56
2022-10-12T04:38:37.648Z,100451.44
2022-10-12T04:41:04.332Z,100451.56
2022-10-12T04:43:30.843Z,100448.03
2022-10-12T04:45:58.889Z,100442.06
2022-10-12T04:48:26.193Z,100449.22
2022-10-12T04:50:53.020Z,100452.44
2022-10-12T04:53:19.600Z,100451.97
2022-10-12T04:55:46.055Z,100448.56
2022-10-12T04:58:12.463Z,100454.84
2022-10-12T05:00:38.882Z,100446.81
2022-10-12T05:03:05.724Z,100455.50
2022-10-12T05:05:32.198Z,100460.88
2022-10-12T05:07:58.652Z,100447.75
2022-10-12T05:10:25.054Z,100449.78
2022-10-12T05:12:51.556Z,100446.84
2022-10-12T05:15:18.095Z,100444.75
2022-10-12T05:17:44.457Z,100448.84
2022-10-12T05:20:11.677Z,100444.06
2022-10-12T05:22:38.138Z,100446.22
2022-10-12T05:25:05.946Z,100440.53
2022-10-12T05:27:32.351Z,100445.50
2022-10-12T05:29:58.779Z,100426.25
2022-10-12T05:32:25.195Z,100451.50
2022-10-12T05:34:51.651Z,100436.00
2022-10-12T05:37:18.044Z,100445.25
2022-10-12T05:39:44.414Z,100446.69
2022-10-12T05:42:10.778Z,100440.69
2022-10-12T05:44:37.197Z,100442.34
2022-10-12T05:47:03.732Z,100447.41
2022-10-12T05:49:30.933Z,100437.53
2022-10-12T05:51:57.326Z,100435.81
2022-10-12T05:54:23.712Z,100433.34
2022-10-12T05:56:50.140Z,100437.63
2022-10-12T05:59:16.530Z,100438.28
2022-10-12T06:01:43.000Z,100434.16
2022-10-12T06:04:09.484Z,100438.97
2022-10-12T06:06:35.851Z,100437.31
2022-10-12T06:09:02.393Z,100442.31
2022-10-12T06:11:30.423Z,100437.31
2022-10-12T06:13:59.135Z,100451.19
2022-10-12T06:16:25.563Z,100444.75
2022-10-12T06:18:51.994Z,100435.66
2022-10-12T06:21:32.911Z,100440.09
2022-10-12T06:23:59.646Z,100440.69
2022-10-12T06:26:26.013Z,100441.22
2022-10-12T06:28:52.468Z,100437.72
2022-10-12T06:31:18.991Z,100440.97
2022-10-12T06:33:45.393Z,100433.09
2022-10-12T06:36:11.805Z,100428.94
2022-10-12T06:38:38.182Z,100440.97
2022-10-12T06:41:04.787Z,100446.06
2022-10-12T06:43:31.204Z,100447.06
2022-10-12T06:46:01.780Z,100446.06
2022-10-12T06:48:29.028Z,100465.72
2022-10-12T06:50:55.703Z,100451.59
2022-10-12T06:53:22.496Z,100458.88
2022-10-12T06:55:49.305Z,100451.50
2022-10-12T06:58:15.733Z,100455.91
2022-10-12T07:00:42.270Z,100454.13
2022-10-12T07:03:12.705Z,100463.66
2022-10-12T07:05:39.221Z,100455.34
2022-10-12T07:08:05.642Z,100465.50
2022-10-12T07:10:32.026Z,100460.97
2022-10-12T07:12:58.824Z,100457.94
2022-10-12T07:15:25.298Z,100458.50
2022-10-12T07:17:51.688Z,100472.63
2022-10-12T07:20:18.042Z,100471.94
2022-10-12T07:22:44.760Z,100474.38
2022-10-12T07:25:11.346Z,100481.09
2022-10-12T07:27:38.025Z,100488.28
2022-10-12T07:30:05.136Z,100479.19
2022-10-12T07:32:31.502Z,100477.16
2022-10-12T07:34:57.900Z,100488.28
2022-10-12T07:37:24.349Z,100486.97
2022-10-12T07:39:50.805Z,100484.06
2022-10-12T07:42:19.527Z,100482.19
2022-10-12T07:44:46.279Z,100480.56
2022-10-12T07:47:12.631Z,100476.53
2022-10-12T07:49:39.014Z,100480.59
2022-10-12T07:52:05.368Z,100475.16
2022-10-12T07:54:32.716Z,100471.97
2022-10-12T07:56:59.155Z,100480.41
2022-10-12T07:59:25.606Z,100476.75
2022-10-12T08:01:52.039Z,100473.66
2022-10-12T08:04:18.475Z,100484.91
2022-10-12T08:06:44.964Z,100476.53
2022-10-12T08:09:11.351Z,100478.38
2022-10-12T08:11:40.028Z,100483.66
2022-10-12T08:14:07.502Z,100486.63
2022-10-12T08:16:33.936Z,100481.69
2022-10-12T08:19:00.421Z,100477.38
2022-10-12T08:21:26.834Z,100476.47
2022-10-12T08:23:53.266Z,100475.63
2022-10-12T08:26:19.640Z,100477.38
2022-10-12T08:28:46.362Z,100468.41
2022-10-12T08:31:17.590Z,100463.13
2022-10-12T08:33:44.318Z,100466.06
2022-10-12T08:36:11.178Z,100474.88
2022-10-12T08:38:43.204Z,100462.81
2022-10-12T08:41:26.178Z,100465.19
2022-10-12T08:44:04.480Z,100466.56
2022-10-12T08:46:31.180Z,100459.91
2022-10-12T08:49:12.444Z,100451.25
2022-10-12T08:51:49.156Z,100459.63
2022-10-12T08:54:18.982Z,100464.41
2022-10-12T08:56:45.531Z,100453.03
2022-10-12T08:59:17.544Z,100446.75
2022-10-12T09:02:14.656Z,100460.13
2022-10-12T09:05:01.406Z,100462.00
2022-10-12T09:07:47.830Z,100450.72
2022-10-12T09:10:26.584Z,100453.97
2022-10-12T09:13:14.057Z,100447.72
2022-10-12T09:16:06.228Z,100452.31
2022-10-12T09:18:46.214Z,100452.41
2022-10-12T09:21:21.534Z,100443.00
2022-10-12T09:23:49.438Z,100449.81
2022-10-12T09:26:18.914Z,100451.59
2022-10-12T09:28:54.944Z,100438.41
2022-10-12T09:31:33.411Z,100450.53
2022-10-12T09:34:03.057Z,100430.41
2022-10-12T09:36:34.297Z,100446.84
2022-10-12T09:39:02.604Z,100439.81
2022-10-12T09:41:42.006Z,100436.31
2022-10-12T09:44:16.468Z,100437.31
2022-10-12T09:46:49.369Z,100439.25
2022-10-12T09:49:15.818Z,100437.63
2022-10-12T09:51:42.333Z,100430.94
2022-10-12T09:54:18.127Z,100433.81
2022-10-12T09:56:51.135Z,100428.66
2022-10-12T09:59:25.025Z,100421.28
2022-10-12T10:02:04.409Z,100418.19
2022-10-12T10:04:31.417Z,100426.41
2022-10-12T10:07:20.554Z,100423.00
2022-10-12T10:09:48.870Z,100412.06
2022-10-12T10:12:50.462Z,100408.94
2022-10-12T10:15:21.697Z,100414.84
2022-10-12T10:17:53.666Z,100412.38
2022-10-12T10:20:28.763Z,100395.00
2022-10-12T10:22:56.003Z,100401.81
2022-10-12T10:25:24.329Z,100405.34
2022-10-12T10:28:10.864Z,100399.16
2022-10-12T10:30:40.768Z,100398.88
2022-10-12T10:33:17.400Z,100398.50
2022-10-12T10:36:22.178Z,100400.50
2022-10-12T10:39:07.148Z,100393.44
2022-10-12T10:41:39.570Z,100391.94
2022-10-12T10:44:26.229Z,100395.31
2022-10-12T10:46:55.200Z,100392.78
2022-10-12T10:49:33.618Z,100389.81
2022-10-12T10:52:02.093Z,100384.06
2022-10-12T10:54:31.131Z,100388.78
2022-10-12T10:57:25.259Z,100385.41
2022-10-12T11:00:02.258Z,100379.16
2022-10-12T11:02:58.426Z,100370.38
2022-10-12T11:05:37.494Z,100377.06
2022-10-12T11:08:16.474Z,100373.78
2022-10-12T11:10:51.301Z,100358.31
2022-10-12T11:13:23.267Z,100358.53
2022-10-12T11:16:05.093Z,100351.06
2022-10-12T11:18:47.013Z,100344.00
2022-10-12T11:21:26.551Z,100355.13
2022-10-12T11:24:02.233Z,100357.59
2022-10-12T11:26:38.363Z,100343.59
2022-10-12T11:29:06.066Z,100341.47
2022-10-12T11:31:42.872Z,100347.19
2022-10-12T11:34:16.882Z,100341.81
2022-10-12T11:37:07.565Z,100349.34
2022-10-12T11:39:43.213Z,100336.47
2022-10-12T11:42:22.957Z,100327.53
2022-10-12T11:44:50.011Z,100323.88
2022-10-12T11:47:43.969Z,100316.47
2022-10-12T11:50:33.039Z,100323.06
2022-10-12T11:53:02.222Z,100322.31
2022-10-12T11:55:47.293Z,100325.94
2022-10-12T11:58:42.355Z,100326.13
2022-10-12T12:01:37.416Z,100308.56
2022-10-12T12:04:39.771Z,100313.63
2022-10-12T12:07:03.968Z,100317.78
2022-10-12T12:09:41.044Z,100320.41
2022-10-12T12:12:11.638Z,100317.78
2022-10-12T12:14:45.874Z,100316.91
2022-10-12T12:17:18.114Z,100322.41
2022-10-12T12:19:49.609Z,100308.97
2022-10-12T12:22:23.574Z,100310.31
2022-10-12T12:24:59.663Z,100296.66
2022-10-12T12:27:33.874Z,100292.31
2022-10-12T12:30:02.926Z,100286.09
2022-10-12T12:32:44.523Z,100282.75
2022-10-12T12:35:33.100Z,100273.72
2022-10-12T12:38:03.530Z,100263.38
2022-10-12T12:40:30.451Z,100260.47
2022-10-12T12:43:19.689Z,100263.91
2022-10-12T12:46:08.047Z,100257.66
2022-10-12T12:48:43.688Z,100266.47
2022-10-12T12:51:14.938Z,100259.81
2022-10-12T12:53:50.440Z,100256.31
2022-10-12T12:56:34.329Z,100253.06
2022-10-12T12:59:25.104Z,100252.03
2022-10-12T13:02:19.441Z,100257.94
2022-10-12T13:05:04.892Z,100267.94
2022-10-12T13:08:13.462Z,100268.16
2022-10-12T13:11:01.437Z,100257.03
2022-10-12T13:14:14.513Z,100250.28
2022-10-12T13:17:32.346Z,100250.28
2022-10-12T13:19:56.030Z,100254.63
2022-10-12T13:22:29.369Z,100252.69
2022-10-12T13:25:06.649Z,100255.00
2022-10-12T13:27:40.898Z,100251.16
2022-10-12T13:30:22.814Z,100248.16
2022-10-12T13:33:10.418Z,100253.00
2022-10-12T13:35:43.347Z,100251.09
2022-10-12T13:38:15.768Z,100243.75
2022-10-12T13:40:51.473Z,100245.88
2022-10-12T13:43:27.180Z,100252.78
2022-10-12T13:45:53.706Z,100247.47
2022-10-12T13:48:46.470Z,100248.19
2022-10-12T13:51:22.673Z,100230.72
2022-10-12T13:53:49.116Z,100241.19
2022-10-12T13:56:22.968Z,100236.75
2022-10-12T13:58:53.664Z,100233.25
2022-10-12T14:01:20.171Z,100230.50
2022-10-12T14:03:46.751Z,100226.16
2022-10-12T14:06:29.904Z,100219.75
2022-10-12T14:09:01.205Z,100210.13
2022-10-12T14:11:28.456Z,100209.88
2022-10-12T14:13:55.814Z,100202.91
2022-10-12T14:16:22.232Z,100198.19
2022-10-12T14:18:50.645Z,100203.41
2022-10-12T14:21:28.031Z,100195.19
2022-10-12T14:23:59.837Z,100205.78
2022-10-12T14:26:37.607Z,100209.19
2022-10-12T14:29:33.881Z,100211.03
2022-10-12T14:32:03.641Z,100204.13
2022-10-12T14:34:34.218Z,100204.94
2022-10-12T14:37:16.884Z,100209.19
2022-10-12T14:39:45.893Z,100209.94
2022-10-12T14:42:27.062Z,100209.94
2022-10-12T14:44:53.759Z,100213.66
2022-10-12T14:47:22.997Z,100203.91
2022-10-12T14:49:51.484Z,100209.19
2022-10-12T14:52:27.654Z,100203.53
2022-10-12T14:57:30.551Z,100199.91
2022-10-12T14:59:57.696Z,100193.06
2022-10-12T15:02:30.332Z,100198.13
2022-10-12T15:04:57.978Z,100192.81
2022-10-12T15:07:31.974Z,100191.88
2022-10-12T15:09:58.957Z,100191.88
2022-10-12T15:12:26.598Z,100191.88
2022-10-12T15:14:55.869Z,100194.50
2022-10-12T15:17:22.232Z,100191.97
2022-10-12T15:19:50.091Z,100190.28
2022-10-12T15:22:18.395Z,100194.75
2022-10-12T15:24:45.499Z,100190.41
2022-10-12T15:27:12.240Z,100189.69
2022-10-12T15:29:39.348Z,100183.66
2022-10-12T15:32:06.890Z,100176.97
2022-10-12T15:34:33.382Z,100177.72
2022-10-12T15:36:59.790Z,100168.94
2022-10-12T15:39:26.331Z,100165.31
2022-10-12T15:41:52.690Z,100161.72
2022-10-12T15:44:19.085Z,100153.03
2022-10-12T15:46:50.335Z,100147.81
2022-10-12T15:49:19.711Z,100160.97
2022-10-12T15:51:48.727Z,100163.63
2022-10-12T15:54:15.188Z,100153.25
2022-10-12T15:56:41.664Z,100156.50
2022-10-12T15:59:08.087Z,100156.50
2022-10-12T16:01:36.136Z,100151.56
2022-10-12T16:04:04.714Z,100156.13
2022-10-12T16:06:31.263Z,100163.38
2022-10-12T16:08:58.704Z,100150.25
2022-10-12T16:11:25.096Z,100150.25
2022-10-12T16:13:56.538Z,100152.88
2022-10-12T16:16:23.571Z,100146.84
2022-10-12T16:18:51.376Z,100134.69
2022-10-12T16:21:17.766Z,100138.53
2022-10-12T16:23:44.209Z,100144.94
2022-10-12T16:26:13.482Z,100154.06
2022-10-12T16:28:40.003Z,100142.28
2022-10-12T16:31:12.259Z,100135.75
2022-10-12T16:33:39.267Z,100144.78
2022-10-12T16:36:11.158Z,100150.44
2022-10-12T16:38:37.559Z,100135.97
2022-10-12T16:41:15.367Z,100140.66
2022-10-12T16:43:42.714Z,100139.53
2022-10-12T16:46:10.219Z,100134.50
2022-10-12T16:48:36.858Z,100137.59
2022-10-12T16:51:08.286Z,100137.09
2022-10-12T16:53:34.938Z,100145.59
2022-10-12T16:56:02.216Z,100144.91
2022-10-12T16:58:28.607Z,100145.22
2022-10-12T17:00:55.422Z,100151.81
2022-10-12T17:03:21.848Z,100154.91
2022-10-12T17:05:48.197Z,100164.25
2022-10-12T17:08:15.760Z,100158.47
2022-10-12T17:10:43.920Z,100161.84
2022-10-12T17:13:10.544Z,100153.28
2022-10-12T17:15:41.533Z,100142.41
2022-10-12T17:18:08.710Z,100146.13
2022-10-12T17:20:36.052Z,100149.56
2022-10-12T17:23:03.076Z,100161.69
2022-10-12T17:25:29.456Z,100161.94
2022-10-12T17:27:55.870Z,100161.94
2022-10-12T17:30:22.287Z,100161.63
2022-10-12T17:32:48.651Z,100168.72
2022-10-12T17:35:15.141Z,100161.75
2022-10-12T17:37:41.509Z,100154.34
2022-10-12T17:40:10.534Z,100160.78
2022-10-12T17:42:36.995Z,100156.78
2022-10-12T17:45:03.983Z,100163.88
2022-10-12T17:47:30.410Z,100150.88
2022-10-12T17:49:56.808Z,100153.50
2022-10-12T17:52:23.229Z,100151.94
2022-10-12T17:54:49.610Z,100155.00
2022-10-12T17:57:16.448Z,100154.38
2022-10-12T17:59:43.054Z,100155.88
2022-10-12T18:02:09.978Z,100159.66
2022-10-12T18:04:36.616Z,100152.47
2022-10-12T18:07:03.154Z,100144.47
2022-10-12T18:09:30.536Z,100152.91
2022-10-12T18:11:56.891Z,100151.00
2022-10-12T18:14:23.298Z,100143.19
2022-10-12T18:16:49.671Z,100136.63
2022-10-12T18:19:16.105Z,100142.88
2022-10-12T18:21:42.516Z,100161.03
2022-10-12T18:24:15.990Z,100168.97
2022-10-12T18:26:45.548Z,100165.28
2022-10-12T18:29:16.373Z,100161.38
2022-10-12T18:31:42.749Z,100160.75
2022-10-12T18:34:09.215Z,100171.44
2022-10-12T18:36:35.745Z,100169.41
2022-10-12T18:39:03.839Z,100166.88
2022-10-12T18:41:31.164Z,100165.94
2022-10-12T18:43:58.789Z,100170.06
2022-10-12T18:46:27.507Z,100173.31
2022-10-12T18:48:54.136Z,100171.75
2022-10-12T18:51:24.898Z,100168.56
2022-10-12T18:53:51.461Z,100178.59
2022-10-12T18:56:18.767Z,100183.13
2022-10-12T18:58:45.257Z,100184.94
2022-10-12T19:01:14.954Z,100202.06
2022-10-12T19:03:41.380Z,100192.66
2022-10-12T19:06:16.520Z,100195.84
2022-10-12T19:08:43.513Z,100204.50
2022-10-12T19:11:11.043Z,100187.47
2022-10-12T19:13:38.598Z,100192.22
2022-10-12T19:16:12.305Z,100188.41
2022-10-12T19:18:39.910Z,100195.16
2022-10-12T19:21:09.594Z,100187.00
2022-10-12T19:23:36.269Z,100192.59
2022-10-12T19:26:08.338Z,100180.69
2022-10-12T19:28:35.440Z,100181.41
2022-10-12T19:31:07.350Z,100177.41
2022-10-12T19:33:33.843Z,100178.25
2022-10-12T19:36:03.678Z,100185.22
2022-10-12T19:38:30.129Z,100182.69
2022-10-12T19:40:56.638Z,100185.44
2022-10-12T19:43:23.186Z,100184.28
2022-10-12T19:45:50.796Z,100187.88
2022-10-12T19:48:17.737Z,100184.78
2022-10-12T19:50:44.846Z,100181.97
2022-10-12T19:53:11.331Z,100194.84
2022-10-12T19:55:40.399Z,100194.19
2022-10-12T19:58:07.489Z,100201.47
2022-10-12T20:00:37.276Z,100189.03
2022-10-12T20:03:04.656Z,100194.31
2022-10-12T20:05:31.086Z,100200.41
2022-10-12T20:07:58.154Z,100201.91
2022-10-12T20:10:24.658Z,100207.38
2022-10-12T20:12:51.128Z,100207.38
2022-10-12T20:15:17.608Z,100214.16
2022-10-12T20:17:43.974Z,100206.28
2022-10-12T20:20:10.719Z,100191.84
2022-10-12T20:22:37.101Z,100182.97
2022-10-12T20:25:09.327Z,100180.78
2022-10-12T20:27:36.573Z,100205.94
2022-10-12T20:30:04.254Z,100207.75
2022-10-12T20:32:30.686Z,100198.69
2022-10-12T20:34:57.125Z,100201.47
2022-10-12T20:37:23.597Z,100201.16
2022-10-12T20:39:50.758Z,100204.09
2022-10-12T20:42:21.540Z,100204.97
2022-10-12T20:44:48.498Z,100196.88
2022-10-12T20:47:14.929Z,100192.34
2022-10-12T20:49:41.880Z,100189.16
2022-10-12T20:52:08.352Z,100195.53
2022-10-12T20:54:35.939Z,100202.72
2022-10-12T20:57:05.269Z,100196.69
2022-10-12T20:59:34.292Z,100203.53
2022-10-12T21:02:00.696Z,100197.19
2022-10-12T21:04:28.217Z,100188.56
2022-10-12T21:06:54.646Z,100184.44
2022-10-12T21:09:21.101Z,100193.28
2022-10-12T21:11:47.492Z,100192.53
2022-10-12T21:14:14.011Z,100184.81
2022-10-12T21:16:40.525Z,100180.47
2022-10-12T21:19:06.898Z,100185.44
2022-10-12T21:21:33.323Z,100179.72
2022-10-12T21:24:01.109Z,100182.97
2022-10-12T21:26:29.692Z,100176.22
2022-10-12T21:28:56.149Z,100180.47
2022-10-12T21:31:22.634Z,100188.47
2022-10-12T21:33:49.030Z,100185.88
2022-10-12T21:36:19.909Z,100177.53
2022-10-12T21:38:47.027Z,100187.78
2022-10-12T21:41:19.028Z,100180.44
2022-10-12T21:43:45.678Z,100180.56
2022-10-12T21:46:15.747Z,100180.00
2022-10-12T21:48:42.459Z,100179.81
2022-10-12T21:51:09.337Z,100171.22
2022-10-12T21:53:37.036Z,100173.13
2022-10-12T21:56:14.296Z,100165.59
2022-10-12T21:58:41.172Z,100173.22
2022-10-12T22:01:13.520Z,100168.59
2022-10-12T22:03:40.812Z,100165.13
2022-10-12T22:06:11.308Z,100159.19
2022-10-12T22:08:37.681Z,100154.66
2022-10-12T22:11:09.877Z,100165.41
2022-10-12T22:13:37.212Z,100165.78
2022-10-12T22:16:05.783Z,100165.19
2022-10-12T22:18:32.940Z,100164.56
2022-10-12T22:21:14.042Z,100171.16
2022-10-12T22:23:40.593Z,100169.25
2022-10-12T22:26:11.328Z,100166.16
2022-10-12T22:28:37.816Z,100169.19
2022-10-12T22:31:09.513Z,100170.50
2022-10-12T22:33:37.068Z,100174.66
2022-10-12T22:36:05.109Z,100172.78
2022-10-12T22:38:32.902Z,100179.91
2022-10-12T22:41:05.592Z,100177.22
2022-10-12T22:43:33.446Z,100178.97
2022-10-12T22:46:00.433Z,100185.84
2022-10-12T22:48:27.641Z,100193.69
2022-10-12T22:50:54.321Z,100188.59
2022-10-12T22:53:22.267Z,100195.44
2022-10-12T22:55:48.950Z,100183.03
2022-10-12T22:58:15.608Z,100187.53
2022-10-12T23:00:42.271Z,100176.00
2022-10-12T23:03:08.702Z,100182.97
2022-10-12T23:05:35.121Z,100171.09
2022-10-12T23:08:01.773Z,100178.06
2022-10-12T23:10:28.130Z,100186.81
2022-10-12T23:12:54.512Z,100170.44
2022-10-12T23:15:20.890Z,100173.13
2022-10-12T23:17:48.169Z,100172.19
2022-10-12T23:20:14.557Z,100169.50
2022-10-12T23:22:41.868Z,100156.78
2022-10-12T23:25:08.315Z,100161.28
2022-10-12T23:27:34.722Z,100156.59
2022-10-12T23:30:01.100Z,100166.28
2022-10-12T23:32:30.380Z,100162.03
2022-10-12T23:34:56.771Z,100162.59
2022-10-12T23:37:23.175Z,100161.09
2022-10-12T23:39:50.796Z,100161.66
2022-10-12T23:42:17.530Z,100163.81
2022-10-12T23:44:44.108Z,100163.47
2022-10-12T23:47:10.516Z,100163.66
2022-10-12T23:49:36.917Z,100164.28
2022-10-12T23:52:05.912Z,100158.75
2022-10-12T23:54:32.324Z,100156.78
2022-10-12T23:56:58.690Z,100149.63
2022-10-12T23:59:25.088Z,100158.84
